Terminal Aerodrome Forecast
Issued by NWS Pocatello, ID

Home | Current Version | Previous Version | Text Only | Print | Product List | Glossary On
Versions: 1 2 3 4 5 6 7 8 9 10 11 12 13 14
567
FTUS45 KPIH 032324
TAFPIH
TAF
KPIH 032324Z 0400/0424 32007KT P6SM SKC
     FM041700 21010KT P6SM FEW080 BKN180=

USA.gov is the U.S. government's official web portal to all federal, state and local government web resources and services.